Melissa RD121's Hourly Summary for Monday, July 9, 2018
Hour Temp
(f)
RH
(%)
Solar Rad.
(MJ/m2)
Rainfall
(in)
Wind
(mph)
7/9/2018 12:00 AM 77 76 0 0 0.45
7/9/2018 1:00 AM 76 82 0 0 0.08
7/9/2018 2:00 AM 75 86 0 0 0
7/9/2018 3:00 AM 74 87 0 0 0
7/9/2018 4:00 AM 75 86 0 0 0
7/9/2018 5:00 AM 75 85 0 0 0
7/9/2018 6:00 AM 74 86 0.03 0 0
7/9/2018 7:00 AM 74 89 0.09 0 0.04
7/9/2018 8:00 AM 74 87 0.39 0 0
7/9/2018 9:00 AM 78 72 1.24 0 0
7/9/2018 10:00 AM 83 61 2.2 0 0.12
7/9/2018 11:00 AM 85 58 1.83 0 0.8
7/9/2018 12:00 PM 79 69 1.85 0.14 3.01
7/9/2018 1:00 PM 83 62 3.35 0 4.93
7/9/2018 2:00 PM 83 62 2.55 0 7.68
7/9/2018 3:00 PM 82 65 0.69 0 1.66
7/9/2018 4:00 PM 82 66 0.58 0 0.52
7/9/2018 5:00 PM 83 64 1.03 0 0.34
7/9/2018 6:00 PM 85 63 1.01 0 1.03
7/9/2018 7:00 PM 83 63 0.4 0 2.55
7/9/2018 8:00 PM 79 71 0.06 0 1.35
7/9/2018 9:00 PM 77 74 0 0 0.07
7/9/2018 10:00 PM 75 85 0 0 0
7/9/2018 11:00 PM 75 86 0 0 0.42
Data Summary 78 74 17.30 0.14 1.04